AirNav   TITAN Aviation Fuels
 
 769 users online  

54OR St Charles Medical Center Heliport
Bend, Oregon, USA

GOING TO BEND?


FAA INFORMATION EFFECTIVE 23 MARCH 2023

Location

FAA Identifier: 54OR
Lat/Long: 44-04-06.1300N 121-16-03.1000W
44-04.102167N 121-16.051667W
44.0683694,-121.2675278
(estimated)
Elevation: 3590 ft. / 1094 m (estimated)
Variation: 18E (1985)
From city: 2 miles NE of BEND, OR
Time zone: UTC -7 (UTC -8 during Standard Time)
Zip code: 97701

Heliport Operations

Heliport use: Private use, MEDICAL USE.
Activation date: 08/1985
Control tower: no
ARTCC: SEATTLE CENTER
FSS: MC MINNVILLE FLIGHT SERVICE STATION
Attendance: UNATNDD
Wind indicator: yes
Segmented circle: no

Heliport Communications

WX AWOS-3 at BDN (3 nm NE): 134.425 (541-382-1477)
WX ASOS at RDM (12 nm NE): 119.025 (541-504-8743)
WX AWOS-3PT at S21 (14 nm SW): 128.325 (541-593-4623)

Nearby radio navigation aids

VOR radial/distance  VOR name  Freq  Var
DSDr154/11.2DESCHUTES VORTAC117.6018E

Heliport Services

Fuel available: A

Runway Information

Helipad H1

Dimensions: 60 x 60 ft. / 18 x 18 m
Surface: asphalt/concrete, in good condition
Latitude: 44-04.102167N
Longitude: 121-16.051667W
Elevation: 3590.0 ft.
Traffic pattern: leftleft
Obstructions: bldg, marked and lighted
BLDG LOCATED 50 FT WEST

Heliport Ownership and Management from official FAA records

Ownership: Privately-owned
Owner: ST CHARLES MEDICAL CENTER
2500 NE NEFF RD
BEND, OR 97701
Phone 541-706-6990
Manager: KATHY DYCK
2500 NE NEFF RD
BEND, OR 97701
Phone (541) 508-9019
OTHER CONTACT: BILL CONKLIN 541-280-8372

Heliport Operational Statistics

Aircraft based on the field: 2
Multi engine airplanes: 1
Helicopters: 1
    

Additional Remarks

FOR CD CTC SEATTLE ARTCC AT 253-351-3694.

Instrument Procedures

There are no published instrument procedures at 54OR.

Some nearby airports with instrument procedures:

KBDN - Bend Municipal Airport (3 nm NE)
KRDM - Roberts Field Airport (12 nm NE)
S21 - Sunriver Airport (14 nm SW)
S39 - Prineville Airport (20 nm NE)
S33 - Madras Municipal Airport (36 nm N)
 
Loc | Ops | Rwys | IFR | FBO | Links
Com | Nav | Svcs | Stats | Notes
Area around 54OR (St Charles Medical Center Heliport)
 
Road maps at: MapQuest Bing Google
 
Aerial photo
WARNING: Photo may not be current or correct
Aerial photo of 54OR (St Charles Medical Center Heliport)
Do you have a better or more recent aerial photo of St Charles Medical Center Heliport that you would like to share? If so, please send us your photo.

 
Sectional chart

 
Airport distance calculator
Flying to St Charles Medical Center Heliport? Find the distance to fly.

From to 54OR

Sunrise and sunset
Times for 28-Mar-2023
 Local
(UTC-7)
 Zulu
(UTC)
Morning civil twilight06:2513:25
Sunrise06:5413:54
Sunset19:2602:26
Evening civil twilight19:5502:55

Current date and time
Zulu (UTC)  29-Mar-2023 04:48:45
Local (UTC-7)  28-Mar-2023 21:48:45
 
METAR
KBDN 
3nm NE 
290435Z AUTO 00000KT 10SM SCT085 00/M00 A2969 RMK AO2
KRDM 
12nm NE 
290437Z 35007KT 10SM SCT024 02/M01 A2969 RMK AO2 T00171006
KS21 
14nm SW 
290435Z AUTO 00000KT 10SM FEW050 FEW055 FEW120 M03/M04 A2971 RMK AO2
TAF
KBDN 
3nm NE 
281720Z 2818/2918 12010KT P6SM SCT015 BKN035 OVC100 FM281900 17016G24KT P6SM VCSH SCT015 BKN025 OVC050 FM282300 19012G20KT P6SM VCSH OVC035 FM290700 VRB03KT P6SM OVC030
KRDM 
12nm NE 
290117Z 2901/2924 VRB04KT P6SM VCSH OVC050 TEMPO 2905/2908 OVC020 FM290800 21004KT P6SM FEW020 BKN040 FM291100 17003KT P6SM FEW020 OVC070 FM291800 17005KT P6SM BKN100 FM292000 VRB05KT P6SM BKN050 FM292300 34006KT P6SM BKN100
NOTAMs
Click for the latest NOTAMs
NOTAMs are issued by the DoD/FAA and will open in a separate window not controlled by AirNav.

 

 
 

Would you like to see your business listed on this page?

 If your business provides an interesting product or service to pilots, flight crews, aircraft, or users of the St Charles Medical Center Heliport, you should consider listing it here.  To start the listing process, click on the button below
 
Add a business
 

Other Pages about St Charles Medical Center Heliport

Update a link
 
Copyright © AirNav, LLC. All rights reserved. Privacy Policy  Contact